Shinshinmaru — JD3332 — position and weather

sailwx.info

Track history (hours):
 
Tides and Currents Weather Stations Pressure Air Temp Water Temp Dewpoint Dewpoint Depression Visibility Wind Speed Wind Dir Waves Ship Positions

Shinshinmaru

Last reported at 2017-Oct-12 15:51 UTC. Time now 2017-Oct-19 15:00 UTC.
Position N 34°49' E 139°09'.

Length 74 m; draft 4.2 m.

Type: Tanker. MMSI: 431003616.

Date/timePositionNaut miles runAvg speedWind from/ knotsBaromVisibWave heightAir tempDewpointWater temp
2017-Oct-12 15:51N 34°49' E 139°09'1510.4
2017-Oct-12 14:22N 34°58' E 139°24'4 9.6
2017-Oct-12 13:59N 35°00' E 139°28'510.5
2017-Oct-12 13:29N 35°03' E 139°33'510.8
2017-Oct-12 13:00N 35°06' E 139°39'510.5
2017-Oct-12 12:30N 35°09' E 139°44'511.0
2017-Oct-12 12:00N 35°15' E 139°46'611.7
2017-Oct-12 11:31N 35°20' E 139°43'511.0
2017-Oct-12 11:01N 35°25' E 139°43'611.7
2017-Oct-12 10:30N 35°28' E 139°49'5 1.0
2017-Oct-12 05:13N 35°32' E 139°54'211.8
2017-Oct-12 05:00N 35°31' E 139°51'511.0
2017-Oct-12 04:30N 35°30' E 139°44'1 2.6
2017-Oct-12 04:00N 35°29' E 139°43'0 0.0
2017-Oct-12 03:30N 35°29' E 139°43'0 0.0
2017-Oct-12 03:01N 35°29' E 139°43'0 0.0
2017-Oct-12 02:31N 35°29' E 139°43'0 0.0
2017-Oct-12 02:00N 35°29' E 139°43'0 0.0
2017-Oct-12 01:31N 35°29' E 139°43'0 0.0
2017-Oct-12 01:01N 35°29' E 139°43'3 1.2
2017-Oct-11 22:50N 35°31' E 139°46'  
2017-Oct-09 08:45N 35°25' E 139°47'611.8
2017-Oct-09 08:15N 35°20' E 139°44'311.2
2017-Oct-09 08:00N 35°17' E 139°45'611.6
2017-Oct-09 07:30N 35°12' E 139°47'611.2
2017-Oct-09 07:00N 35°06' E 139°44'611.1
2017-Oct-09 06:30N 35°03' E 139°39'  
Track history (hours):
 
Tides and Currents Weather Stations Pressure Air Temp Water Temp Dewpoint Dewpoint Depression Visibility Wind Speed Wind Dir Waves Ship Positions

Shinshinmaru

Last reported at 2017-Oct-12 15:51 UTC. Time now 2017-Oct-19 15:00 UTC.
Position N 34°49' E 139°09'.

Length 74 m; draft 4.2 m.

Type: Tanker. MMSI: 431003616.

Date/timePositionNaut miles runAvg speedWind from/ knotsBaromVisibWave heightAir tempDewpointWater temp
2017-Oct-12 15:51N 34°49' E 139°09'1510.4
2017-Oct-12 14:22N 34°58' E 139°24'4 9.6
2017-Oct-12 13:59N 35°00' E 139°28'510.5
2017-Oct-12 13:29N 35°03' E 139°33'510.8
2017-Oct-12 13:00N 35°06' E 139°39'510.5
2017-Oct-12 12:30N 35°09' E 139°44'511.0
2017-Oct-12 12:00N 35°15' E 139°46'611.7
2017-Oct-12 11:31N 35°20' E 139°43'511.0
2017-Oct-12 11:01N 35°25' E 139°43'611.7
2017-Oct-12 10:30N 35°28' E 139°49'5 1.0
2017-Oct-12 05:13N 35°32' E 139°54'211.8
2017-Oct-12 05:00N 35°31' E 139°51'511.0
2017-Oct-12 04:30N 35°30' E 139°44'1 2.6
2017-Oct-12 04:00N 35°29' E 139°43'0 0.0
2017-Oct-12 03:30N 35°29' E 139°43'0 0.0
2017-Oct-12 03:01N 35°29' E 139°43'0 0.0
2017-Oct-12 02:31N 35°29' E 139°43'0 0.0
2017-Oct-12 02:00N 35°29' E 139°43'0 0.0
2017-Oct-12 01:31N 35°29' E 139°43'0 0.0
2017-Oct-12 01:01N 35°29' E 139°43'3 1.2
2017-Oct-11 22:50N 35°31' E 139°46'  
2017-Oct-09 08:45N 35°25' E 139°47'611.8
2017-Oct-09 08:15N 35°20' E 139°44'311.2
2017-Oct-09 08:00N 35°17' E 139°45'611.6
2017-Oct-09 07:30N 35°12' E 139°47'611.2
2017-Oct-09 07:00N 35°06' E 139°44'611.1
2017-Oct-09 06:30N 35°03' E 139°39'  

Dump ship's entire track history